createdAt,value
2023-11-21T00:01:10.830Z,2.82
2023-11-21T00:03:42.152Z,2.79
2023-11-21T00:06:16.116Z,2.73
2023-11-21T00:08:46.778Z,2.70
2023-11-21T00:11:17.479Z,2.67
2023-11-21T00:13:48.296Z,2.64
2023-11-21T00:16:23.801Z,2.61
2023-11-21T00:18:54.659Z,2.60
2023-11-21T00:21:28.170Z,2.58
2023-11-21T00:23:58.862Z,2.58
2023-11-21T00:26:29.527Z,2.58
2023-11-21T00:29:09.365Z,2.57
2023-11-21T00:31:40.265Z,2.57
2023-11-21T00:34:10.996Z,2.56
2023-11-21T00:36:44.862Z,2.56
2023-11-21T00:39:15.994Z,2.56
2023-11-21T00:41:46.820Z,2.56
2023-11-21T00:44:17.561Z,2.55
2023-11-21T00:46:48.837Z,2.55
2023-11-21T00:49:19.564Z,2.54
2023-11-21T00:51:53.061Z,2.54
2023-11-21T00:54:24.707Z,2.53
2023-11-21T00:56:55.431Z,2.53
2023-11-21T00:59:27.412Z,2.53
2023-11-21T01:02:01.768Z,2.51
2023-11-21T01:04:33.331Z,2.51
2023-11-21T01:07:07.116Z,2.51
2023-11-21T01:09:37.907Z,2.50
2023-11-21T01:12:09.381Z,2.48
2023-11-21T01:14:40.069Z,2.45
2023-11-21T01:17:10.816Z,2.43
2023-11-21T01:19:41.822Z,2.42
2023-11-21T01:22:15.377Z,2.41
2023-11-21T01:24:46.299Z,2.41
2023-11-21T01:27:17.237Z,2.39
2023-11-21T01:29:49.425Z,2.35
2023-11-21T01:32:20.170Z,2.32
2023-11-21T01:34:51.746Z,2.29
2023-11-21T01:37:25.849Z,2.25
2023-11-21T01:39:57.208Z,2.21
2023-11-21T01:42:30.918Z,2.20
2023-11-21T01:45:01.807Z,2.19
2023-11-21T01:47:32.940Z,2.18
2023-11-21T01:50:05.955Z,2.16
2023-11-21T01:52:40.958Z,2.15
2023-11-21T01:55:18.849Z,2.15
2023-11-21T01:57:52.827Z,2.16
2023-11-21T02:00:25.208Z,2.15
2023-11-21T02:02:56.235Z,2.13
2023-11-21T02:05:27.498Z,2.13
2023-11-21T02:08:02.248Z,2.12
2023-11-21T02:10:33.310Z,2.11
2023-11-21T02:13:04.531Z,2.08
2023-11-21T02:15:35.513Z,2.06
2023-11-21T02:18:07.809Z,2.04
2023-11-21T02:20:40.372Z,2.03
2023-11-21T02:23:14.462Z,2.00
2023-11-21T02:25:45.512Z,1.99
2023-11-21T02:28:17.905Z,1.95
2023-11-21T02:30:56.706Z,1.94
2023-11-21T02:33:27.492Z,1.92
2023-11-21T02:35:58.539Z,1.89
2023-11-21T02:38:32.029Z,1.89
2023-11-21T02:41:03.178Z,1.87
2023-11-21T02:43:34.148Z,1.88
2023-11-21T02:46:04.906Z,1.86
2023-11-21T02:48:35.682Z,1.86
2023-11-21T02:51:06.616Z,1.85
2023-11-21T02:53:40.891Z,1.83
2023-11-21T02:56:13.648Z,1.81
2023-11-21T02:58:46.841Z,1.78
2023-11-21T03:01:18.529Z,1.76
2023-11-21T03:03:52.772Z,1.75
2023-11-21T03:06:24.102Z,1.73
2023-11-21T03:08:57.481Z,1.70
2023-11-21T03:11:28.130Z,1.70
2023-11-21T03:13:58.791Z,1.70
2023-11-21T03:16:30.373Z,1.69
2023-11-21T03:19:01.093Z,1.68
2023-11-21T03:21:32.604Z,1.69
2023-11-21T03:24:06.065Z,1.68
2023-11-21T03:26:36.869Z,1.68
2023-11-21T03:29:07.632Z,1.69
2023-11-21T03:31:38.487Z,1.69
2023-11-21T03:34:09.247Z,1.69
2023-11-21T03:36:40.047Z,1.70
2023-11-21T03:39:13.446Z,1.70
2023-11-21T03:41:44.292Z,1.72
2023-11-21T03:44:15.031Z,1.73
2023-11-21T03:46:45.824Z,1.73
2023-11-21T03:49:16.882Z,1.71
2023-11-21T03:51:47.629Z,1.72
2023-11-21T03:54:20.921Z,1.70
2023-11-21T03:56:51.667Z,1.70
2023-11-21T03:59:22.477Z,1.70
2023-11-21T04:01:53.152Z,1.68
2023-11-21T04:04:24.049Z,1.68
2023-11-21T04:06:56.038Z,1.68
2023-11-21T04:09:29.642Z,1.67
2023-11-21T04:12:00.519Z,1.63
2023-11-21T04:14:31.966Z,1.58
2023-11-21T04:17:02.599Z,1.55
2023-11-21T04:19:33.434Z,1.53
2023-11-21T04:22:04.021Z,1.50
2023-11-21T04:24:37.359Z,1.48
2023-11-21T04:27:08.229Z,1.49
2023-11-21T04:29:38.987Z,1.50
2023-11-21T04:32:10.464Z,1.49
2023-11-21T04:34:43.233Z,1.50
2023-11-21T04:37:13.835Z,1.49
2023-11-21T04:39:47.137Z,1.51
2023-11-21T04:42:18.041Z,1.52
2023-11-21T04:44:48.659Z,1.54
2023-11-21T04:47:20.776Z,1.50
2023-11-21T04:49:52.062Z,1.53
2023-11-21T04:52:22.856Z,1.52
2023-11-21T04:54:59.117Z,1.51
2023-11-21T04:57:29.981Z,1.52
2023-11-21T05:00:00.734Z,1.52
2023-11-21T05:02:35.702Z,1.51
2023-11-21T05:05:09.182Z,1.52
2023-11-21T05:07:39.886Z,1.53
2023-11-21T05:10:16.434Z,1.55
2023-11-21T05:12:48.092Z,1.54
2023-11-21T05:15:19.793Z,1.55
2023-11-21T05:17:51.467Z,1.54
2023-11-21T05:20:22.509Z,1.53
2023-11-21T05:22:53.520Z,1.53
2023-11-21T05:25:27.004Z,1.53
2023-11-21T05:27:57.911Z,1.55
2023-11-21T05:30:28.473Z,1.58
2023-11-21T05:32:59.182Z,1.59
2023-11-21T05:35:30.000Z,1.59
2023-11-21T05:38:00.912Z,1.61
2023-11-21T05:40:34.459Z,1.62
2023-11-21T05:43:06.814Z,1.63
2023-11-21T05:45:37.392Z,1.67
2023-11-21T05:48:08.398Z,1.70
2023-11-21T05:50:39.750Z,1.74
2023-11-21T05:53:11.545Z,1.79
2023-11-21T05:55:45.116Z,1.83
2023-11-21T05:58:16.490Z,1.88
2023-11-21T06:00:47.249Z,1.94
2023-11-21T06:03:19.098Z,1.98
2023-11-21T06:05:49.873Z,1.88
2023-11-21T06:08:20.721Z,1.53
2023-11-21T06:10:54.141Z,1.07
2023-11-21T06:13:25.882Z,0.66
2023-11-21T06:15:56.780Z,0.41
2023-11-21T06:18:27.437Z,0.26
2023-11-21T06:20:58.095Z,0.12
2023-11-21T06:23:28.849Z,0.06
2023-11-21T06:26:02.249Z,0.03
2023-11-21T06:28:33.347Z,-0.05
2023-11-21T06:31:06.703Z,-0.11
2023-11-21T06:33:37.622Z,-0.12
2023-11-21T06:36:09.005Z,-0.09
2023-11-21T06:38:39.644Z,-0.07
2023-11-21T06:41:15.426Z,-0.01
2023-11-21T06:43:47.918Z,0.09
2023-11-21T06:46:19.191Z,0.19
2023-11-21T06:48:51.107Z,0.32
2023-11-21T06:51:21.902Z,0.54
2023-11-21T06:53:52.607Z,0.83
2023-11-21T06:56:27.022Z,1.17
2023-11-21T06:58:58.209Z,1.56
2023-11-21T07:01:29.213Z,1.95
2023-11-21T07:03:59.991Z,2.33
2023-11-21T07:06:30.958Z,2.69
2023-11-21T07:09:02.713Z,3.05
2023-11-21T07:11:36.172Z,3.39
2023-11-21T07:14:08.789Z,3.71
2023-11-21T07:16:39.987Z,4.06
2023-11-21T07:19:11.407Z,4.37
2023-11-21T07:21:43.362Z,4.66
2023-11-21T07:24:14.297Z,4.93
2023-11-21T07:26:47.687Z,5.19
2023-11-21T07:29:18.398Z,5.41
2023-11-21T07:31:49.359Z,5.59
2023-11-21T07:34:20.159Z,5.83
2023-11-21T07:36:50.945Z,5.92
2023-11-21T07:39:21.724Z,6.02
2023-11-21T07:41:55.537Z,6.11
2023-11-21T07:44:26.311Z,6.21
2023-11-21T07:46:58.796Z,6.31
2023-11-21T07:49:29.716Z,6.46
2023-11-21T07:52:00.469Z,6.53
2023-11-21T07:54:31.728Z,6.63
2023-11-21T07:57:05.691Z,6.81
2023-11-21T07:59:36.427Z,6.88
2023-11-21T08:02:07.585Z,7.06
2023-11-21T08:04:38.504Z,7.30
2023-11-21T08:07:09.229Z,7.48
2023-11-21T08:09:39.813Z,7.67
2023-11-21T08:12:13.320Z,7.92
2023-11-21T08:14:44.854Z,8.08
2023-11-21T08:17:18.291Z,8.14
2023-11-21T08:19:51.020Z,8.33
2023-11-21T08:22:22.103Z,8.54
2023-11-21T08:24:53.328Z,8.67
2023-11-21T08:27:26.888Z,8.88
2023-11-21T08:29:58.748Z,9.11
2023-11-21T08:32:29.407Z,9.23
2023-11-21T08:35:00.204Z,9.40
2023-11-21T08:37:31.824Z,9.65
2023-11-21T08:40:03.716Z,9.91
2023-11-21T08:42:37.080Z,10.18
2023-11-21T08:45:10.367Z,10.33
2023-11-21T08:47:41.087Z,10.46
2023-11-21T08:50:13.591Z,10.71
2023-11-21T08:52:44.814Z,10.79
2023-11-21T08:55:16.282Z,10.78
2023-11-21T08:57:51.011Z,10.91
2023-11-21T09:00:23.475Z,10.97
2023-11-21T09:02:54.067Z,10.95
2023-11-21T09:05:24.860Z,11.06
2023-11-21T09:07:55.552Z,11.16
2023-11-21T09:10:27.036Z,11.31
2023-11-21T09:13:00.438Z,11.34
2023-11-21T09:15:31.377Z,11.21
2023-11-21T09:18:03.240Z,11.21
2023-11-21T09:20:34.226Z,11.28
2023-11-21T09:23:04.935Z,11.24
2023-11-21T09:25:35.643Z,11.31
2023-11-21T09:28:11.069Z,11.41
2023-11-21T09:30:41.369Z,11.40
2023-11-21T09:33:12.807Z,11.49
2023-11-21T09:35:45.327Z,11.50
2023-11-21T09:38:15.970Z,11.54
2023-11-21T09:40:47.098Z,11.63
2023-11-21T09:43:23.667Z,11.56
2023-11-21T09:46:01.413Z,11.53
2023-11-21T09:48:33.752Z,11.64
2023-11-21T09:51:05.410Z,11.70
2023-11-21T09:53:37.516Z,11.77
2023-11-21T09:56:10.574Z,11.89
2023-11-21T09:58:44.626Z,11.98
2023-11-21T10:01:18.183Z,12.13
2023-11-21T10:03:49.062Z,12.14
2023-11-21T10:06:22.091Z,12.07
2023-11-21T10:08:56.084Z,12.14
2023-11-21T10:11:29.443Z,12.21
2023-11-21T10:14:06.006Z,12.26
2023-11-21T10:16:37.442Z,12.37
2023-11-21T10:19:11.842Z,12.33
2023-11-21T10:21:43.395Z,12.22
2023-11-21T10:24:14.443Z,12.24
2023-11-21T10:26:53.162Z,12.40
2023-11-21T10:29:29.025Z,12.57
2023-11-21T10:32:00.567Z,12.75
2023-11-21T10:34:31.435Z,12.89
2023-11-21T10:37:02.441Z,13.25
2023-11-21T10:39:33.128Z,14.07
2023-11-21T10:42:04.124Z,15.09
2023-11-21T10:44:39.199Z,15.99
2023-11-21T10:47:13.433Z,16.68
2023-11-21T10:49:44.206Z,17.17
2023-11-21T10:52:18.881Z,17.50
2023-11-21T10:54:50.589Z,17.68
2023-11-21T10:57:25.221Z,17.74
2023-11-21T10:59:59.280Z,17.68
2023-11-21T11:02:33.983Z,17.39
2023-11-21T11:07:40.497Z,16.79
2023-11-21T11:10:15.781Z,16.53
2023-11-21T11:12:46.867Z,16.28
2023-11-21T11:15:20.910Z,16.13
2023-11-21T11:17:52.520Z,15.99
2023-11-21T11:20:24.646Z,15.85
2023-11-21T11:23:14.881Z,15.72
2023-11-21T11:26:05.323Z,15.57
2023-11-21T11:28:46.867Z,15.48
2023-11-21T11:31:31.308Z,15.39
2023-11-21T11:34:10.447Z,15.36
2023-11-21T11:36:48.079Z,15.30
2023-11-21T11:39:40.146Z,15.26
2023-11-21T11:42:12.325Z,15.20
2023-11-21T11:44:58.020Z,15.10
2023-11-21T11:47:35.459Z,15.04
2023-11-21T11:50:14.752Z,14.99
2023-11-21T11:52:46.602Z,14.92
2023-11-21T11:55:19.847Z,14.83
2023-11-21T12:00:44.349Z,14.70
2023-11-21T12:03:18.759Z,14.65
2023-11-21T12:05:53.857Z,14.64
2023-11-21T12:08:32.267Z,14.58
2023-11-21T12:11:03.622Z,14.63
2023-11-21T12:13:37.455Z,14.61
2023-11-21T12:16:09.249Z,14.61
2023-11-21T12:18:42.618Z,14.57
2023-11-21T12:21:13.423Z,14.56
2023-11-21T12:23:44.262Z,14.56
2023-11-21T12:26:15.098Z,14.56
2023-11-21T12:28:46.362Z,14.55
2023-11-21T12:31:22.324Z,14.56
2023-11-21T12:33:57.642Z,14.55
2023-11-21T12:36:31.869Z,14.54
2023-11-21T12:39:04.034Z,14.52
2023-11-21T12:41:34.853Z,14.49
2023-11-21T12:44:05.539Z,14.45
2023-11-21T12:46:37.102Z,14.40
2023-11-21T12:49:11.678Z,14.34
2023-11-21T12:51:42.571Z,14.25
2023-11-21T12:54:14.221Z,14.18
2023-11-21T12:56:45.048Z,14.11
2023-11-21T12:59:19.690Z,14.04
2023-11-21T13:01:53.184Z,13.97
2023-11-21T13:04:36.287Z,13.92
2023-11-21T13:07:16.255Z,13.83
2023-11-21T13:09:46.909Z,13.82
2023-11-21T13:12:19.596Z,13.78
2023-11-21T13:14:51.245Z,13.71
2023-11-21T13:17:25.936Z,13.69
2023-11-21T13:19:59.456Z,13.64
2023-11-21T13:22:30.231Z,13.45
2023-11-21T13:25:00.894Z,12.71
2023-11-21T13:27:32.449Z,11.83
2023-11-21T13:30:03.259Z,11.12
2023-11-21T13:32:34.707Z,10.57
2023-11-21T13:35:13.401Z,10.21
2023-11-21T13:37:47.040Z,10.00
2023-11-21T13:40:21.869Z,9.87
2023-11-21T13:42:54.798Z,9.89
2023-11-21T13:45:27.457Z,9.98
2023-11-21T13:48:00.340Z,10.11
2023-11-21T13:50:35.345Z,10.22
2023-11-21T13:53:17.528Z,10.32
2023-11-21T13:55:50.691Z,10.37
2023-11-21T13:58:25.914Z,10.37
2023-11-21T14:00:59.749Z,10.34
2023-11-21T14:03:40.623Z,10.34
2023-11-21T14:06:22.300Z,10.32
2023-11-21T14:08:54.447Z,10.48
2023-11-21T14:11:28.344Z,10.66
2023-11-21T14:14:01.669Z,10.86
2023-11-21T14:16:32.358Z,11.07
2023-11-21T14:19:11.162Z,11.24
2023-11-21T14:21:45.630Z,11.43
2023-11-21T14:24:19.401Z,11.57
2023-11-21T14:26:52.483Z,11.68
2023-11-21T14:29:25.306Z,11.80
2023-11-21T14:31:58.595Z,11.89
2023-11-21T14:34:29.468Z,11.97
2023-11-21T14:37:04.403Z,12.04
2023-11-21T14:39:42.037Z,12.08
2023-11-21T14:42:12.913Z,12.11
2023-11-21T14:44:44.250Z,12.13
2023-11-21T14:47:19.979Z,12.14
2023-11-21T14:49:58.125Z,12.16
2023-11-21T14:52:44.620Z,12.16
2023-11-21T14:55:33.049Z,12.16
2023-11-21T14:58:05.826Z,12.14
2023-11-21T15:00:46.074Z,12.12
2023-11-21T15:03:35.558Z,12.09
2023-11-21T15:06:20.757Z,12.06
2023-11-21T15:09:16.535Z,12.03
2023-11-21T15:11:48.938Z,11.99
2023-11-21T15:14:23.070Z,11.98
2023-11-21T15:16:55.082Z,11.95
2023-11-21T15:19:27.688Z,11.92
2023-11-21T15:21:58.454Z,11.92
2023-11-21T15:24:31.927Z,11.88
2023-11-21T15:27:02.536Z,11.84
2023-11-21T15:29:33.362Z,11.81
2023-11-21T15:32:04.154Z,11.78
2023-11-21T15:34:35.084Z,11.75
2023-11-21T15:37:06.656Z,11.73
2023-11-21T15:39:40.841Z,11.71
2023-11-21T15:42:11.784Z,11.68
2023-11-21T15:44:42.741Z,11.64
2023-11-21T15:47:13.748Z,11.62
2023-11-21T15:49:44.908Z,11.60
2023-11-21T15:52:15.801Z,11.58
2023-11-21T15:54:47.604Z,11.57
2023-11-21T15:57:18.864Z,11.56
2023-11-21T15:59:49.810Z,11.55
2023-11-21T16:02:20.888Z,11.53
2023-11-21T16:04:51.762Z,11.52
2023-11-21T16:07:22.520Z,11.50
2023-11-21T16:09:56.022Z,11.48
2023-11-21T16:12:26.973Z,11.48
2023-11-21T16:14:57.802Z,11.46
2023-11-21T16:17:28.668Z,11.45
2023-11-21T16:19:59.733Z,11.42
2023-11-21T16:22:32.621Z,11.42
2023-11-21T16:25:11.517Z,11.40
2023-11-21T16:27:43.797Z,11.38
2023-11-21T16:30:15.840Z,11.38
2023-11-21T16:32:46.525Z,11.39
2023-11-21T16:35:19.369Z,11.39
2023-11-21T16:37:50.603Z,11.39
2023-11-21T16:40:24.072Z,11.40
2023-11-21T16:42:54.963Z,11.40
2023-11-21T16:45:25.688Z,11.39
2023-11-21T16:47:56.690Z,11.40
2023-11-21T16:50:27.835Z,11.40
2023-11-21T16:52:58.713Z,11.40
2023-11-21T16:55:32.276Z,11.40
2023-11-21T16:58:03.267Z,11.40
2023-11-21T17:00:34.316Z,11.40
2023-11-21T17:03:05.253Z,11.39
2023-11-21T17:05:36.251Z,11.37
2023-11-21T17:08:09.284Z,11.36
2023-11-21T17:10:43.573Z,11.35
2023-11-21T17:13:14.486Z,11.33
2023-11-21T17:15:48.184Z,11.33
2023-11-21T17:18:19.486Z,11.31
2023-11-21T17:20:50.392Z,11.32
2023-11-21T17:23:21.362Z,11.31
2023-11-21T17:25:55.058Z,11.30
2023-11-21T17:28:25.985Z,11.29
2023-11-21T17:30:56.955Z,11.27
2023-11-21T17:33:27.711Z,11.25
2023-11-21T17:35:59.397Z,11.24
2023-11-21T17:38:30.074Z,11.22
2023-11-21T17:41:03.548Z,11.21
2023-11-21T17:43:37.200Z,11.19
2023-11-21T17:46:08.325Z,11.18
2023-11-21T17:48:41.931Z,11.17
2023-11-21T17:51:12.722Z,11.16
2023-11-21T17:53:45.196Z,11.15
2023-11-21T17:56:21.011Z,11.09
2023-11-21T17:58:55.484Z,11.16
2023-11-21T18:01:32.175Z,11.16
2023-11-21T18:04:03.230Z,11.14
2023-11-21T18:06:34.455Z,11.12
2023-11-21T18:09:05.770Z,11.11
2023-11-21T18:11:40.053Z,11.10
2023-11-21T18:14:11.848Z,11.08
2023-11-21T18:16:43.571Z,11.09
2023-11-21T18:19:14.496Z,11.07
2023-11-21T18:21:45.839Z,11.07
2023-11-21T18:24:16.667Z,11.07
2023-11-21T18:26:51.154Z,11.08
2023-11-21T18:29:22.112Z,11.08
2023-11-21T18:31:53.340Z,11.10
2023-11-21T18:34:25.920Z,11.10
2023-11-21T18:36:57.660Z,11.09
2023-11-21T18:39:28.755Z,11.09
2023-11-21T18:42:02.219Z,11.10
2023-11-21T18:44:41.401Z,11.12
2023-11-21T18:47:21.513Z,11.14
2023-11-21T18:49:53.276Z,11.17
2023-11-21T18:52:25.761Z,11.20
2023-11-21T18:54:56.757Z,11.22
2023-11-21T18:57:32.827Z,11.25
2023-11-21T19:00:05.397Z,11.26
2023-11-21T19:02:36.351Z,11.28
2023-11-21T19:05:09.034Z,11.29
2023-11-21T19:07:39.997Z,11.29
2023-11-21T19:10:11.800Z,11.29
2023-11-21T19:12:45.124Z,11.29
2023-11-21T19:15:18.125Z,11.29
2023-11-21T19:17:48.906Z,11.28
2023-11-21T19:20:20.009Z,11.28
2023-11-21T19:22:50.829Z,11.27
2023-11-21T19:25:22.277Z,11.27
2023-11-21T19:27:55.724Z,11.27
2023-11-21T19:30:26.669Z,11.27
2023-11-21T19:33:00.829Z,11.27
2023-11-21T19:35:35.093Z,11.27
2023-11-21T19:38:05.964Z,11.28
2023-11-21T19:40:36.911Z,11.29
2023-11-21T19:43:10.317Z,11.31
2023-11-21T19:45:41.200Z,11.32
2023-11-21T19:48:12.084Z,11.33
2023-11-21T19:50:43.435Z,11.35
2023-11-21T19:53:14.165Z,11.35
2023-11-21T19:55:45.144Z,11.38
2023-11-21T19:58:19.244Z,11.43
2023-11-21T20:00:50.983Z,11.46
2023-11-21T20:03:22.802Z,11.50
2023-11-21T20:05:53.594Z,11.53
2023-11-21T20:08:24.292Z,11.56
2023-11-21T20:10:55.909Z,11.59
2023-11-21T20:13:29.513Z,11.62
2023-11-21T20:16:01.050Z,11.64
2023-11-21T20:18:32.208Z,11.67
2023-11-21T20:21:03.263Z,11.68
2023-11-21T20:23:34.554Z,11.68
2023-11-21T20:26:06.244Z,11.50
2023-11-21T20:28:40.014Z,10.97
2023-11-21T20:31:10.647Z,10.33
2023-11-21T20:33:41.392Z,9.76
2023-11-21T20:36:12.413Z,9.31
2023-11-21T20:38:43.369Z,9.03
2023-11-21T20:41:15.775Z,8.83
2023-11-21T20:43:49.538Z,8.66
2023-11-21T20:46:20.267Z,8.61
2023-11-21T20:48:53.782Z,8.61
2023-11-21T20:51:26.268Z,8.66
2023-11-21T20:53:57.302Z,8.71
2023-11-21T20:56:28.090Z,8.77
2023-11-21T20:59:06.457Z,8.83
2023-11-21T21:01:37.721Z,8.87
2023-11-21T21:04:10.297Z,8.94
2023-11-21T21:06:42.368Z,9.00
2023-11-21T21:09:13.616Z,9.05
2023-11-21T21:11:44.333Z,9.08
2023-11-21T21:14:17.807Z,9.10
2023-11-21T21:16:48.724Z,9.12
2023-11-21T21:19:19.823Z,9.16
2023-11-21T21:21:50.716Z,9.18
2023-11-21T21:24:21.394Z,9.17
2023-11-21T21:26:52.215Z,9.20
2023-11-21T21:29:27.490Z,9.20
2023-11-21T21:31:58.312Z,9.22
2023-11-21T21:34:29.508Z,9.24
2023-11-21T21:37:02.321Z,9.24
2023-11-21T21:39:33.000Z,9.27
2023-11-21T21:42:03.656Z,9.26
2023-11-21T21:44:37.744Z,9.26
2023-11-21T21:47:08.707Z,9.23
2023-11-21T21:49:39.710Z,9.21
2023-11-21T21:52:10.384Z,9.12
2023-11-21T21:54:41.003Z,8.93
2023-11-21T21:57:11.795Z,8.70
2023-11-21T21:59:45.382Z,8.45
2023-11-21T22:02:16.078Z,8.20
2023-11-21T22:04:46.654Z,7.98
2023-11-21T22:07:17.294Z,7.77
2023-11-21T22:09:48.215Z,7.63
2023-11-21T22:12:18.853Z,7.49
2023-11-21T22:14:52.192Z,7.37
2023-11-21T22:17:22.951Z,7.27
2023-11-21T22:19:53.771Z,7.16
2023-11-21T22:22:25.170Z,7.07
2023-11-21T22:24:56.004Z,6.97
2023-11-21T22:27:27.008Z,6.88
2023-11-21T22:30:00.378Z,6.84
2023-11-21T22:32:31.782Z,6.76
2023-11-21T22:35:04.549Z,6.79
2023-11-21T22:37:39.983Z,6.91
2023-11-21T22:40:12.643Z,6.80
2023-11-21T22:42:43.341Z,6.52
2023-11-21T22:45:16.946Z,6.33
2023-11-21T22:47:48.008Z,6.40
2023-11-21T22:50:19.003Z,6.51
2023-11-21T22:52:50.750Z,6.55
2023-11-21T22:55:22.109Z,6.57
2023-11-21T22:57:53.500Z,6.56
2023-11-21T23:00:31.308Z,6.47
2023-11-21T23:03:03.441Z,6.26
2023-11-21T23:05:34.290Z,6.11
2023-11-21T23:08:05.101Z,6.00
2023-11-21T23:10:35.757Z,5.95
2023-11-21T23:13:06.442Z,5.93
2023-11-21T23:15:39.897Z,5.92
2023-11-21T23:18:10.697Z,5.93
2023-11-21T23:20:41.574Z,5.92
2023-11-21T23:23:12.629Z,5.93
2023-11-21T23:25:44.108Z,5.93
2023-11-21T23:28:14.931Z,5.92
2023-11-21T23:30:49.297Z,5.89
2023-11-21T23:33:21.339Z,5.88
2023-11-21T23:35:52.208Z,5.83
2023-11-21T23:38:23.167Z,5.81
2023-11-21T23:40:54.014Z,5.79
2023-11-21T23:43:24.957Z,5.79
2023-11-21T23:45:58.348Z,5.73
2023-11-21T23:48:28.943Z,5.73
2023-11-21T23:51:00.207Z,5.83
2023-11-21T23:53:30.989Z,5.94
2023-11-21T23:56:01.702Z,5.84
2023-11-21T23:58:32.420Z,5.74
